Time;durP1;ratioP1;P1;durP2;ratioP2;P2;SDS_P1;SDS_P2;PMS_P1;PMS_P2;Temp;Humidity;BMP_temperature;BMP_pressure;BME280_temperature;BME280_humidity;BME280_pressure;Samples;Min_cycle;Max_cycle;Signal;HPM_P1;HPM_P2
2022/03/25 16:43:42;;;;;;;31.10;17.50;;;;;;;20.13;28.29;102389.59;5568463;23;100872;-72
2022/03/25 16:48:44;;;;;;;37.17;18.42;;;;;;;20.18;28.38;102395.59;4878077;23;98600;-70
2022/03/25 16:51:10;;;;;;;32.38;17.65;;;;;;;20.50;27.91;102394.00;4829599;29;97020;-68
2022/03/25 16:53:38;;;;;;;36.17;18.52;;;;;;;20.20;28.20;102395.53;4832328;29;101412;-69
2022/03/25 16:56:06;;;;;;;33.22;17.75;;;;;;;19.90;28.96;102400.56;4839147;29;99216;-69
2022/03/25 16:58:32;;;;;;;38.80;16.60;;;;;;;19.83;28.82;102402.66;4838275;29;97451;-69
2022/03/25 17:01:00;;;;;;;39.05;17.13;;;;;;;19.70;29.23;102395.28;4840458;29;97069;-70
2022/03/25 17:03:26;;;;;;;38.78;18.25;;;;;;;19.90;29.15;102397.88;4837967;29;99150;-71
2022/03/25 17:05:55;;;;;;;38.85;17.90;;;;;;;19.80;29.06;102391.22;4832316;29;99170;-73
2022/03/25 17:08:22;;;;;;;38.85;17.95;;;;;;;19.96;28.76;102392.22;4835874;29;96912;-71
2022/03/25 17:10:48;;;;;;;33.85;18.48;;;;;;;19.81;29.09;102392.97;4840784;29;97206;-72
2022/03/25 17:13:15;;;;;;;39.13;17.75;;;;;;;19.87;29.10;102388.19;4833562;29;98880;-71
2022/03/25 17:15:42;;;;;;;37.95;18.38;;;;;;;20.26;28.25;102390.72;4837260;29;99689;-70
2022/03/25 17:18:10;;;;;;;35.75;18.35;;;;;;;20.47;28.21;102388.81;4825640;29;97900;-72
2022/03/25 17:20:37;;;;;;;36.70;18.38;;;;;;;20.41;28.43;102388.25;4826823;29;99236;-72
2022/03/25 17:23:04;;;;;;;40.13;18.30;;;;;;;20.48;28.07;102397.72;4832993;29;97909;-71
2022/03/25 17:25:31;;;;;;;34.92;17.70;;;;;;;20.58;27.96;102404.34;4831271;29;98957;-71
2022/03/25 17:27:58;;;;;;;35.17;18.27;;;;;;;20.44;28.04;102398.81;4825688;29;97148;-70
2022/03/25 17:30:27;;;;;;;35.05;18.05;;;;;;;20.32;28.40;102404.78;4830612;29;97057;-70
2022/03/25 17:32:53;;;;;;;39.45;18.58;;;;;;;20.29;28.68;102403.97;4827590;29;99030;-70
2022/03/25 17:35:21;;;;;;;33.05;18.20;;;;;;;20.42;28.53;102406.06;4830251;29;102117;-71
2022/03/25 17:37:48;;;;;;;38.88;17.65;;;;;;;20.17;28.45;102407.25;4830385;29;97722;-71
2022/03/25 17:40:14;;;;;;;47.55;18.35;;;;;;;20.27;28.48;102413.06;4830429;29;97429;-70
2022/03/25 17:42:41;;;;;;;41.22;17.73;;;;;;;20.08;28.92;102407.75;4830830;29;99312;-70
2022/03/25 17:45:08;;;;;;;33.47;18.50;;;;;;;20.23;28.47;102412.31;4831811;29;97731;-69
2022/03/25 17:47:35;;;;;;;46.70;18.10;;;;;;;20.16;28.86;102410.88;4832140;29;97439;-70
2022/03/25 17:50:02;;;;;;;36.33;18.05;;;;;;;20.03;29.08;102409.75;4834945;29;97287;-71
2022/03/25 17:52:29;;;;;;;37.45;18.02;;;;;;;19.92;29.34;102411.22;4814697;29;101264;-70
2022/03/25 17:54:56;;;;;;;37.80;18.70;;;;;;;19.82;29.47;102417.00;4807610;29;101703;-70
2022/03/25 17:57:22;;;;;;;38.67;17.02;;;;;;;19.94;29.14;102420.06;4809235;29;99032;-72
2022/03/25 17:59:49;;;;;;;35.88;18.95;;;;;;;19.75;29.42;102414.72;4814805;29;98581;-70
2022/03/25 18:02:15;;;;;;;34.33;18.48;;;;;;;18.98;30.64;102421.81;4831950;29;99743;-70
2022/03/25 18:04:43;;;;;;;37.22;18.02;;;;;;;19.43;30.00;102418.84;4832422;29;98894;-71
2022/03/25 18:07:09;;;;;;;44.30;18.02;;;;;;;19.26;30.38;102416.97;4831422;29;98847;-71
2022/03/25 18:09:38;;;;;;;33.70;18.15;;;;;;;19.38;30.05;102419.06;4833439;29;98785;-71
2022/03/25 18:12:07;;;;;;;40.30;19.60;;;;;;;19.73;29.52;102421.97;4831436;29;99374;-70
2022/03/25 18:14:34;;;;;;;46.92;19.50;;;;;;;19.44;29.74;102420.59;4830963;29;99237;-70
2022/03/25 18:17:01;;;;;;;43.28;19.15;;;;;;;19.15;30.42;102419.25;4831996;29;97267;-70
2022/03/25 18:19:28;;;;;;;36.22;18.35;;;;;;;19.30;30.21;102423.03;4832952;29;97353;-70
2022/03/25 18:21:56;;;;;;;40.55;18.77;;;;;;;19.36;30.41;102426.31;4832617;29;99222;-72
2022/03/25 18:24:23;;;;;;;36.47;18.75;;;;;;;19.30;30.32;102431.94;4833238;29;101494;-71
2022/03/25 18:26:51;;;;;;;43.25;19.83;;;;;;;19.10;30.68;102432.84;4833761;29;98296;-71
2022/03/25 18:29:18;;;;;;;46.75;20.65;;;;;;;19.01;30.88;102432.41;4836653;29;97137;-70
2022/03/25 18:31:45;;;;;;;51.17;21.20;;;;;;;18.92;31.11;102435.47;4833973;29;99229;-70
2022/03/25 18:34:11;;;;;;;42.00;21.23;;;;;;;19.04;30.89;102443.84;4829323;29;98933;-70
2022/03/25 18:36:38;;;;;;;43.88;21.25;;;;;;;19.02;31.16;102444.88;4829816;29;97340;-71
2022/03/25 18:39:05;;;;;;;44.13;20.77;;;;;;;18.94;31.05;102447.00;4835498;29;97428;-73
2022/03/25 18:41:32;;;;;;;44.92;21.42;;;;;;;18.70;31.63;102440.91;4832805;29;97724;-71
2022/03/25 18:44:00;;;;;;;37.95;21.73;;;;;;;18.68;31.69;102454.34;4834656;29;98901;-74
2022/03/25 18:46:26;;;;;;;38.53;20.88;;;;;;;18.80;31.48;102450.28;4831626;29;96822;-74
2022/03/25 18:48:53;;;;;;;48.08;21.30;;;;;;;18.78;31.68;102459.28;4830012;29;97696;-73
2022/03/25 18:51:20;;;;;;;43.13;20.40;;;;;;;19.03;31.25;102449.28;4834351;28;98982;-72
2022/03/25 18:53:47;;;;;;;56.75;23.25;;;;;;;18.68;31.95;102457.03;4831149;29;99366;-74
2022/03/25 18:56:14;;;;;;;135.07;65.70;;;;;;;18.85;31.86;102456.28;4832681;29;96879;-71
2022/03/25 18:58:41;;;;;;;57.75;28.23;;;;;;;19.13;31.17;102465.81;4830908;29;98108;-71
2022/03/25 19:01:09;;;;;;;43.20;22.83;;;;;;;18.83;31.81;102473.38;4835912;29;99220;-71
2022/03/25 19:03:36;;;;;;;50.83;22.60;;;;;;;18.62;31.93;102468.00;4833564;29;98967;-75
2022/03/25 19:06:02;;;;;;;49.70;23.10;;;;;;;18.67;31.83;102465.13;4833897;29;98392;-71
2022/03/25 19:08:29;;;;;;;44.70;24.55;;;;;;;18.45;32.34;102470.44;4832915;29;98162;-70
2022/03/25 19:10:56;;;;;;;51.13;23.00;;;;;;;18.69;31.97;102468.59;4831909;29;101147;-73
2022/03/25 19:13:23;;;;;;;56.58;24.40;;;;;;;18.64;32.18;102473.28;4839103;29;101216;-73
2022/03/25 19:15:50;;;;;;;52.92;25.48;;;;;;;18.49;32.25;102476.56;4836476;29;96916;-72
2022/03/25 19:18:18;;;;;;;41.97;23.02;;;;;;;18.40;32.37;102471.56;4834558;29;97283;-70
2022/03/25 19:20:44;;;;;;;43.78;21.92;;;;;;;18.60;32.33;102472.53;4833771;29;99506;-70
2022/03/25 19:23:11;;;;;;;49.83;23.58;;;;;;;18.24;32.80;102471.34;4838807;29;99474;-72
2022/03/25 19:25:37;;;;;;;46.85;24.88;;;;;;;18.19;32.89;102473.31;4834366;29;96931;-71
2022/03/25 19:28:04;;;;;;;48.63;23.02;;;;;;;17.95;33.32;102479.63;4837799;29;96902;-71
2022/03/25 19:30:31;;;;;;;46.40;22.70;;;;;;;17.86;33.32;102470.16;4840102;29;97838;-71
2022/03/25 19:32:57;;;;;;;49.40;22.40;;;;;;;18.07;33.27;102469.31;4836615;29;101718;-72
2022/03/25 19:35:27;;;;;;;44.78;21.77;;;;;;;17.90;33.37;102461.97;4832015;29;96879;-71
2022/03/25 19:37:53;;;;;;;48.40;22.20;;;;;;;18.23;32.90;102474.94;4830850;29;97689;-70
2022/03/25 19:40:21;;;;;;;43.25;22.13;;;;;;;17.78;33.36;102470.47;4834943;29;99969;-70
2022/03/25 19:42:48;;;;;;;45.95;21.60;;;;;;;17.98;33.33;102471.50;4834513;29;98862;-72
2022/03/25 19:45:15;;;;;;;51.92;23.08;;;;;;;17.84;33.51;102478.25;4835922;29;97660;-71
2022/03/25 19:47:42;;;;;;;41.45;21.52;;;;;;;17.69;33.91;102473.50;4836201;29;97273;-73
2022/03/25 19:50:11;;;;;;;53.67;23.10;;;;;;;17.83;33.43;102471.16;4835553;29;102431;-71
2022/03/25 19:52:40;;;;;;;48.17;23.95;;;;;;;17.76;33.62;102475.00;4835884;29;99061;-70
2022/03/25 19:55:09;;;;;;;41.17;22.27;;;;;;;17.98;33.37;102469.72;4831390;29;97915;-71
2022/03/25 19:57:36;;;;;;;51.58;23.70;;;;;;;17.33;34.47;102469.47;4836813;29;97172;-69
2022/03/25 20:00:04;;;;;;;45.45;24.00;;;;;;;17.17;34.71;102477.19;4836952;29;97682;-71
2022/03/25 20:02:30;;;;;;;43.28;22.23;;;;;;;17.74;33.82;102476.84;4836340;29;97706;-71
2022/03/25 20:04:57;;;;;;;44.00;23.17;;;;;;;17.78;33.71;102473.16;4838174;29;97060;-70
2022/03/25 20:07:25;;;;;;;50.33;22.50;;;;;;;17.31;34.40;102477.56;4836101;29;96973;-71
2022/03/25 20:09:54;;;;;;;50.17;23.33;;;;;;;17.74;33.83;102476.84;4836279;29;99423;-72
2022/03/25 20:12:21;;;;;;;49.67;23.67;;;;;;;17.76;33.68;102476.81;4841074;29;98954;-72
2022/03/25 20:14:47;;;;;;;49.42;22.45;;;;;;;17.88;33.38;102479.88;4839644;29;96935;-71
2022/03/25 20:17:14;;;;;;;41.28;22.10;;;;;;;17.96;33.60;102481.38;4837197;29;97089;-72
2022/03/25 20:19:41;;;;;;;46.40;22.30;;;;;;;18.07;33.40;102490.72;4836940;28;98801;-71
2022/03/25 20:22:07;;;;;;;48.78;26.27;;;;;;;18.05;33.28;102478.38;4837747;29;97677;-71
2022/03/25 20:24:35;;;;;;;49.67;24.35;;;;;;;17.97;33.23;102481.34;4834573;29;97020;-70
2022/03/25 20:27:03;;;;;;;47.28;24.85;;;;;;;17.73;33.68;102482.25;4834224;29;97346;-72
2022/03/25 20:29:30;;;;;;;47.42;23.80;;;;;;;18.07;33.05;102493.41;4836276;29;99176;-72
2022/03/25 20:31:57;;;;;;;45.30;24.88;;;;;;;18.11;33.21;102503.06;4839217;29;99966;-73
2022/03/25 20:34:24;;;;;;;45.80;24.65;;;;;;;17.46;34.22;102500.16;4831908;29;96854;-72
2022/03/25 20:36:50;;;;;;;50.10;25.20;;;;;;;17.44;34.08;102502.03;4833960;29;97741;-70
2022/03/25 20:39:17;;;;;;;47.35;23.67;;;;;;;17.30;34.54;102499.84;4835001;29;99020;-72
2022/03/25 20:41:44;;;;;;;60.47;26.65;;;;;;;17.24;34.65;102496.53;4839876;29;97706;-71
2022/03/25 20:44:11;;;;;;;51.90;25.00;;;;;;;16.87;35.28;102502.28;4832961;29;96969;-72
2022/03/25 20:46:38;;;;;;;51.47;22.98;;;;;;;17.07;35.36;102497.97;4838573;29;97483;-72
2022/03/25 20:49:04;;;;;;;54.05;23.98;;;;;;;17.31;34.77;102498.06;4836824;29;99129;-70
2022/03/25 20:51:31;;;;;;;49.85;24.52;;;;;;;17.35;34.55;102497.00;4839498;29;100866;-72
2022/03/25 20:53:58;;;;;;;47.33;24.20;;;;;;;16.92;34.99;102501.19;4834172;29;98745;-71
2022/03/25 20:56:25;;;;;;;50.08;23.67;;;;;;;16.87;35.64;102500.47;4835093;29;98714;-73
2022/03/25 20:58:51;;;;;;;53.58;25.00;;;;;;;17.11;34.84;102501.44;4832369;29;98937;-71
2022/03/25 21:01:19;;;;;;;58.78;25.58;;;;;;;17.51;34.18;102496.41;4841703;29;100545;-70
2022/03/25 21:03:46;;;;;;;53.20;24.65;;;;;;;17.31;34.43;102506.94;4839423;29;96897;-73
2022/03/25 21:06:12;;;;;;;41.90;22.25;;;;;;;17.20;34.63;102506.44;4832529;29;99077;-72
2022/03/25 21:08:39;;;;;;;53.22;22.92;;;;;;;16.80;35.24;102506.09;4839318;29;98440;-72
2022/03/25 21:11:06;;;;;;;47.88;23.30;;;;;;;17.18;34.66;102507.44;4838322;29;98824;-71
2022/03/25 21:13:33;;;;;;;43.72;21.88;;;;;;;17.04;34.98;102514.13;4838108;29;96775;-72
2022/03/25 21:16:00;;;;;;;44.30;22.40;;;;;;;17.07;34.77;102515.78;4836914;29;96925;-71
2022/03/25 21:18:28;;;;;;;40.88;22.63;;;;;;;17.20;34.55;102506.44;4834869;29;97333;-71
2022/03/25 21:20:55;;;;;;;41.80;22.40;;;;;;;17.08;34.89;102507.75;4834941;29;98049;-73
2022/03/25 21:23:21;;;;;;;46.00;22.60;;;;;;;16.92;35.11;102503.88;4836186;29;96799;-72
2022/03/25 21:25:48;;;;;;;45.58;23.17;;;;;;;16.96;34.91;102499.28;4829903;29;97060;-72
2022/03/25 21:28:17;;;;;;;49.38;22.70;;;;;;;16.95;34.94;102494.84;4832513;29;99287;-71
2022/03/25 21:30:47;;;;;;;43.65;23.67;;;;;;;16.58;35.59;102493.41;4835107;29;97679;-71
2022/03/25 21:33:14;;;;;;;52.00;24.95;;;;;;;16.42;35.86;102493.94;4835440;29;96884;-72
2022/03/25 21:35:42;;;;;;;51.03;22.40;;;;;;;16.47;35.87;102498.22;4835039;29;97448;-70
2022/03/25 21:38:08;;;;;;;51.08;22.65;;;;;;;16.68;35.42;102497.53;4833104;29;98902;-73
2022/03/25 21:40:36;;;;;;;45.70;22.98;;;;;;;16.68;35.57;102497.53;4830503;29;100206;-70
2022/03/25 21:43:03;;;;;;;48.67;23.58;;;;;;;16.52;36.02;102490.94;4830356;29;97050;-71
2022/03/25 21:45:29;;;;;;;46.42;23.20;;;;;;;16.51;35.88;102497.19;4837648;29;97091;-71
2022/03/25 21:47:56;;;;;;;50.25;25.35;;;;;;;16.55;35.84;102495.28;4832548;29;99057;-71
2022/03/25 21:50:23;;;;;;;48.78;22.23;;;;;;;16.41;36.08;102498.41;4833748;29;100838;-71
2022/03/25 21:52:52;;;;;;;43.08;22.45;;;;;;;16.24;36.10;102492.75;4831805;29;96822;-72
2022/03/25 21:55:19;;;;;;;42.08;22.40;;;;;;;16.37;36.09;102490.56;4839926;29;97232;-70
2022/03/25 21:57:45;;;;;;;50.08;22.63;;;;;;;16.25;36.41;102489.16;4841102;29;98949;-72
2022/03/25 22:00:13;;;;;;;47.38;22.63;;;;;;;16.18;36.92;102490.28;4833861;29;98972;-71
2022/03/25 22:02:39;;;;;;;43.00;22.55;;;;;;;15.93;37.10;102493.69;4831197;29;99101;-72
2022/03/25 22:05:06;;;;;;;43.53;23.08;;;;;;;16.12;36.80;102486.00;4832246;29;97114;-73
2022/03/25 22:07:33;;;;;;;44.28;22.75;;;;;;;16.23;36.52;102489.19;4838615;29;99796;-75
2022/03/25 22:10:01;;;;;;;57.20;29.95;;;;;;;15.97;36.90;102493.59;4829321;29;100123;-71
2022/03/25 22:12:27;;;;;;;56.03;27.27;;;;;;;15.87;37.32;102491.22;4830034;29;96970;-71
2022/03/25 22:14:54;;;;;;;48.40;23.13;;;;;;;15.74;37.70;102488.97;4835625;29;97022;-72
2022/03/25 22:17:20;;;;;;;46.53;22.10;;;;;;;15.45;38.22;102492.41;4842723;29;98137;-70
2022/03/25 22:19:46;;;;;;;44.63;23.52;;;;;;;15.29;38.30;102486.66;4834392;29;98837;-73
2022/03/25 22:22:13;;;;;;;47.78;23.02;;;;;;;15.56;37.87;102493.00;4834039;29;97321;-73
2022/03/25 22:24:39;;;;;;;45.65;22.52;;;;;;;15.77;37.55;102487.06;4835626;29;97986;-72
2022/03/25 22:27:07;;;;;;;49.83;23.52;;;;;;;15.65;37.64;102484.75;4844346;29;99184;-73
2022/03/25 22:29:34;;;;;;;64.35;22.88;;;;;;;15.56;37.84;102487.69;4834712;29;100952;-74
2022/03/25 22:32:00;;;;;;;49.75;23.08;;;;;;;15.66;37.57;102490.97;4839888;29;96798;-73
2022/03/25 22:34:27;;;;;;;47.08;22.52;;;;;;;15.52;37.74;102488.66;4835860;28;97734;-73
2022/03/25 22:36:53;;;;;;;52.22;23.77;;;;;;;15.43;37.94;102489.78;4837340;29;98943;-72
2022/03/25 22:39:20;;;;;;;48.75;22.85;;;;;;;15.54;38.00;102485.09;4837632;29;98843;-73
2022/03/25 22:41:48;;;;;;;51.58;24.33;;;;;;;15.51;38.09;102477.13;4830606;29;97836;-71
2022/03/25 22:44:16;;;;;;;46.58;22.58;;;;;;;15.84;37.35;102487.75;4834037;29;97239;-71
2022/03/25 22:46:44;;;;;;;53.70;23.77;;;;;;;15.20;38.77;102492.22;4839737;29;99324;-73
2022/03/25 22:49:11;;;;;;;50.28;23.13;;;;;;;15.12;38.90;102500.41;4837963;29;98797;-70
2022/03/25 22:51:38;;;;;;;44.35;23.05;;;;;;;15.45;38.23;102487.97;4838885;29;97004;-73
2022/03/25 22:54:05;;;;;;;46.97;21.75;;;;;;;15.80;37.74;102488.78;4839552;29;97382;-71
2022/03/25 22:56:31;;;;;;;49.95;22.98;;;;;;;15.73;37.53;102492.53;4834863;29;98996;-72
2022/03/25 22:58:57;;;;;;;53.53;23.13;;;;;;;15.70;37.81;102490.81;4835844;29;97942;-73
2022/03/25 23:01:31;;;;;;;50.20;22.35;;;;;;;15.60;37.83;102494.69;4839243;29;97187;-71
2022/03/25 23:03:58;;;;;;;42.42;21.83;;;;;;;15.41;38.06;102488.97;4835290;29;97093;-71
2022/03/25 23:06:25;;;;;;;43.80;20.60;;;;;;;15.37;38.13;102486.41;4838814;29;99179;-71
2022/03/25 23:08:51;;;;;;;53.65;23.23;;;;;;;15.42;38.14;102482.75;4837242;29;98358;-72
2022/03/25 23:11:19;;;;;;;45.13;20.88;;;;;;;15.31;38.36;102479.47;4849517;29;96771;-71
2022/03/25 23:13:46;;;;;;;46.50;20.88;;;;;;;15.49;37.90;102481.63;4841545;29;97275;-73
2022/03/25 23:16:12;;;;;;;45.90;20.80;;;;;;;15.54;37.80;102482.41;4847885;29;100014;-70
2022/03/25 23:18:40;;;;;;;50.58;21.42;;;;;;;15.66;37.54;102483.84;4842597;29;99528;-71
2022/03/25 23:21:07;;;;;;;53.22;21.95;;;;;;;15.56;37.69;102484.16;4847372;29;96903;-70
2022/03/25 23:23:33;;;;;;;52.65;22.23;;;;;;;15.57;37.59;102481.44;4844682;29;97944;-71
2022/03/25 23:26:00;;;;;;;44.92;21.75;;;;;;;15.51;37.91;102485.13;4840089;29;98915;-71
2022/03/25 23:28:26;;;;;;;45.83;22.77;;;;;;;15.62;37.73;102492.00;4837567;29;101486;-70
2022/03/25 23:30:52;;;;;;;45.70;20.88;;;;;;;15.41;37.87;102491.66;4842409;29;96882;-71
2022/03/25 23:33:19;;;;;;;41.00;19.95;;;;;;;15.37;37.95;102489.97;4837264;29;96957;-70
2022/03/25 23:35:46;;;;;;;45.97;20.77;;;;;;;15.29;38.37;102489.31;4836781;29;99089;-72
2022/03/25 23:38:13;;;;;;;41.33;20.40;;;;;;;15.25;38.23;102492.97;4837910;29;98048;-71
2022/03/25 23:40:39;;;;;;;55.40;22.58;;;;;;;15.17;38.39;102492.28;4842435;29;96964;-71
2022/03/25 23:43:07;;;;;;;45.72;20.75;;;;;;;15.04;38.68;102475.78;4843754;29;97454;-70
2022/03/25 23:45:34;;;;;;;46.75;21.77;;;;;;;15.21;38.48;102478.00;4842125;29;101256;-70
2022/03/25 23:48:00;;;;;;;46.63;20.70;;;;;;;15.11;38.55;102484.47;4835799;29;98856;-70
2022/03/25 23:50:27;;;;;;;41.05;20.83;;;;;;;15.11;38.50;102481.81;4843622;29;97565;-71
2022/03/25 23:52:54;;;;;;;38.67;20.67;;;;;;;15.12;38.54;102480.91;4839708;29;96940;-71
2022/03/25 23:55:22;;;;;;;38.28;19.63;;;;;;;15.08;38.68;102480.13;4837886;29;99003;-72
2022/03/25 23:57:49;;;;;;;45.10;20.48;;;;;;;15.29;38.49;102481.34;4834343;29;97418;-69
